createdAt,value
2017-02-15T00:00:37.010Z,19.97
2017-02-15T00:01:17.503Z,19.97
2017-02-15T00:01:58.001Z,19.97
2017-02-15T00:02:38.485Z,19.98
2017-02-15T00:03:18.980Z,19.98
2017-02-15T00:03:59.467Z,19.85
2017-02-15T00:04:39.971Z,19.87
2017-02-15T00:05:20.481Z,19.87
2017-02-15T00:06:00.981Z,19.85
2017-02-15T00:06:41.475Z,19.92
2017-02-15T00:07:21.962Z,19.85
2017-02-15T00:08:02.447Z,19.83
2017-02-15T00:08:42.930Z,19.87
2017-02-15T00:09:23.442Z,19.87
2017-02-15T00:10:03.925Z,19.87
2017-02-15T00:10:44.422Z,19.89
2017-02-15T00:11:24.921Z,19.86
2017-02-15T00:12:05.409Z,19.85
2017-02-15T00:12:45.906Z,19.83
2017-02-15T00:13:26.419Z,19.9
2017-02-15T00:14:06.916Z,19.86
2017-02-15T00:14:47.409Z,19.92
2017-02-15T00:15:27.911Z,19.87
2017-02-15T00:16:08.413Z,19.9
2017-02-15T00:16:48.912Z,19.87
2017-02-15T00:17:29.409Z,19.86
2017-02-15T00:18:09.915Z,19.86
2017-02-15T00:18:50.403Z,19.89
2017-02-15T00:19:30.904Z,19.9
2017-02-15T00:20:11.399Z,19.87
2017-02-15T00:20:51.959Z,19.9
2017-02-15T00:21:32.465Z,19.89
2017-02-15T00:22:12.965Z,19.87
2017-02-15T00:22:53.462Z,19.9
2017-02-15T00:23:33.945Z,19.86
2017-02-15T00:24:14.454Z,19.83
2017-02-15T00:24:54.950Z,19.9
2017-02-15T00:25:35.455Z,19.89
2017-02-15T00:26:15.942Z,19.92
2017-02-15T00:26:56.433Z,19.85
2017-02-15T00:27:36.927Z,19.87
2017-02-15T00:28:17.423Z,19.89
2017-02-15T00:28:57.913Z,19.86
2017-02-15T00:29:38.407Z,19.89
2017-02-15T00:30:18.902Z,19.82
2017-02-15T00:30:59.402Z,19.87
2017-02-15T00:31:39.898Z,19.87
2017-02-15T00:32:20.385Z,19.86
2017-02-15T00:33:00.877Z,19.89
2017-02-15T00:33:41.370Z,19.9
2017-02-15T00:34:21.872Z,19.87
2017-02-15T00:35:02.357Z,19.87
2017-02-15T00:35:42.863Z,19.89
2017-02-15T00:36:23.343Z,19.89
2017-02-15T00:37:03.839Z,19.79
2017-02-15T00:37:44.345Z,19.82
2017-02-15T00:38:24.840Z,19.89
2017-02-15T00:39:05.341Z,19.82
2017-02-15T00:39:45.840Z,19.89
2017-02-15T00:40:26.339Z,19.86
2017-02-15T00:41:06.830Z,19.9
2017-02-15T00:41:47.336Z,19.9
2017-02-15T00:42:27.842Z,19.85
2017-02-15T00:43:08.335Z,19.79
2017-02-15T00:43:48.837Z,19.9
2017-02-15T00:44:29.337Z,19.78
2017-02-15T00:45:09.821Z,19.72
2017-02-15T00:45:50.333Z,19.75
2017-02-15T00:46:30.832Z,19.83
2017-02-15T00:47:11.410Z,19.85
2017-02-15T00:47:51.916Z,19.8
2017-02-15T00:48:32.388Z,19.75
2017-02-15T00:49:12.881Z,19.79
2017-02-15T00:49:53.373Z,19.78
2017-02-15T00:50:33.859Z,19.79
2017-02-15T00:51:14.355Z,19.72
2017-02-15T00:51:54.852Z,19.82
2017-02-15T00:52:35.332Z,19.75
2017-02-15T00:53:15.830Z,19.75
2017-02-15T00:53:56.329Z,19.8
2017-02-15T00:54:36.815Z,19.78
2017-02-15T00:55:17.303Z,19.75
2017-02-15T00:55:57.789Z,19.75
2017-02-15T00:56:38.292Z,19.82
2017-02-15T00:57:18.776Z,19.8
2017-02-15T00:57:59.262Z,19.78
2017-02-15T00:58:39.773Z,19.87
2017-02-15T00:59:20.273Z,19.75
2017-02-15T01:00:00.769Z,19.82
2017-02-15T01:00:41.263Z,19.71
2017-02-15T01:01:21.761Z,19.83
2017-02-15T01:02:02.272Z,19.8
2017-02-15T01:02:42.763Z,19.87
2017-02-15T01:03:23.258Z,19.85
2017-02-15T01:04:03.759Z,19.74
2017-02-15T01:04:44.270Z,19.7
2017-02-15T01:05:24.767Z,19.72
2017-02-15T01:06:05.257Z,19.75
2017-02-15T01:06:45.762Z,19.67
2017-02-15T01:07:26.246Z,19.72
2017-02-15T01:08:06.739Z,19.7
2017-02-15T01:08:47.236Z,19.82
2017-02-15T01:09:27.737Z,19.79
2017-02-15T01:10:08.221Z,19.74
2017-02-15T01:10:48.716Z,19.8
2017-02-15T01:11:29.215Z,19.78
2017-02-15T01:12:09.712Z,19.74
2017-02-15T01:12:50.207Z,19.65
2017-02-15T01:13:30.701Z,19.68
2017-02-15T01:14:11.200Z,19.7
2017-02-15T01:14:51.709Z,19.74
2017-02-15T01:15:32.207Z,19.7
2017-02-15T01:16:12.691Z,19.82
2017-02-15T01:16:53.197Z,19.72
2017-02-15T01:17:33.695Z,19.72
2017-02-15T01:18:14.199Z,19.72
2017-02-15T01:18:54.688Z,19.71
2017-02-15T01:19:35.176Z,19.74
2017-02-15T01:20:15.671Z,19.79
2017-02-15T01:20:56.173Z,19.74
2017-02-15T01:21:36.657Z,19.68
2017-02-15T01:22:17.134Z,19.72
2017-02-15T01:22:57.626Z,19.7
2017-02-15T01:23:38.112Z,19.79
2017-02-15T01:24:18.617Z,19.71
2017-02-15T01:24:59.103Z,19.74
2017-02-15T01:25:39.590Z,19.83
2017-02-15T01:26:20.093Z,19.68
2017-02-15T01:27:00.592Z,19.68
2017-02-15T01:27:41.094Z,19.75
2017-02-15T01:28:21.576Z,19.79
2017-02-15T01:29:02.067Z,19.71
2017-02-15T01:29:42.553Z,19.68
2017-02-15T01:30:23.059Z,19.71
2017-02-15T01:31:03.529Z,19.71
2017-02-15T01:31:44.038Z,19.71
2017-02-15T01:32:24.531Z,19.75
2017-02-15T01:33:05.032Z,19.71
2017-02-15T01:33:45.537Z,19.61
2017-02-15T01:34:26.035Z,19.64
2017-02-15T01:35:06.534Z,19.74
2017-02-15T01:35:47.031Z,19.72
2017-02-15T01:36:27.531Z,19.75
2017-02-15T01:37:08.019Z,19.63
2017-02-15T01:37:48.508Z,19.75
2017-02-15T01:38:29.003Z,19.72
2017-02-15T01:39:09.496Z,19.63
2017-02-15T01:39:49.982Z,19.78
2017-02-15T01:40:30.463Z,19.72
2017-02-15T01:41:10.969Z,19.65
2017-02-15T01:41:51.469Z,19.61
2017-02-15T01:42:31.967Z,19.65
2017-02-15T01:43:12.495Z,19.67
2017-02-15T01:43:52.987Z,19.79
2017-02-15T01:44:33.477Z,19.72
2017-02-15T01:45:13.971Z,19.68
2017-02-15T01:45:54.460Z,19.72
2017-02-15T01:46:34.963Z,19.65
2017-02-15T01:47:15.462Z,19.67
2017-02-15T01:47:55.946Z,19.63
2017-02-15T01:48:36.438Z,19.65
2017-02-15T01:49:16.937Z,19.75
2017-02-15T01:49:57.418Z,19.71
2017-02-15T01:50:37.909Z,19.71
2017-02-15T01:51:18.413Z,19.63
2017-02-15T01:51:58.904Z,19.63
2017-02-15T01:52:39.391Z,19.6
2017-02-15T01:53:19.887Z,19.71
2017-02-15T01:54:00.381Z,19.64
2017-02-15T01:54:40.868Z,19.72
2017-02-15T01:55:21.351Z,19.65
2017-02-15T01:56:01.838Z,19.74
2017-02-15T01:56:42.331Z,19.74
2017-02-15T01:57:22.828Z,19.63
2017-02-15T01:58:03.316Z,19.68
2017-02-15T01:58:43.810Z,19.75
2017-02-15T01:59:24.308Z,19.71
2017-02-15T02:00:04.798Z,19.65
2017-02-15T02:00:45.302Z,19.78
2017-02-15T02:01:25.797Z,19.61
2017-02-15T02:02:06.280Z,19.72
2017-02-15T02:02:46.776Z,19.65
2017-02-15T02:03:27.281Z,19.71
2017-02-15T02:04:07.770Z,19.67
2017-02-15T02:04:48.277Z,19.67
2017-02-15T02:05:28.770Z,19.68
2017-02-15T02:06:09.273Z,19.67
2017-02-15T02:06:49.759Z,19.68
2017-02-15T02:07:30.254Z,19.71
2017-02-15T02:08:10.747Z,19.74
2017-02-15T02:08:51.236Z,19.7
2017-02-15T02:09:31.744Z,19.68
2017-02-15T02:10:12.235Z,19.71
2017-02-15T02:10:52.724Z,19.65
2017-02-15T02:11:33.219Z,19.61
2017-02-15T02:12:13.715Z,19.72
2017-02-15T02:12:54.197Z,19.68
2017-02-15T02:13:34.695Z,19.68
2017-02-15T02:14:15.187Z,19.71
2017-02-15T02:14:55.677Z,19.6
2017-02-15T02:15:36.166Z,19.7
2017-02-15T02:16:16.660Z,19.68
2017-02-15T02:16:57.157Z,19.6
2017-02-15T02:17:37.640Z,19.65
2017-02-15T02:18:18.133Z,19.65
2017-02-15T02:18:58.633Z,19.67
2017-02-15T02:19:39.124Z,19.56
2017-02-15T02:20:19.609Z,19.72
2017-02-15T02:21:00.092Z,19.75
2017-02-15T02:21:40.607Z,19.72
2017-02-15T02:22:21.098Z,19.65
2017-02-15T02:23:01.599Z,19.74
2017-02-15T02:23:42.080Z,19.72
2017-02-15T02:24:22.571Z,19.61
2017-02-15T02:25:03.053Z,19.61
2017-02-15T02:25:43.547Z,19.7
2017-02-15T02:26:24.052Z,19.72
2017-02-15T02:27:04.536Z,19.7
2017-02-15T02:27:45.029Z,19.67
2017-02-15T02:28:25.523Z,19.68
2017-02-15T02:29:06.012Z,19.71
2017-02-15T02:29:46.499Z,19.6
2017-02-15T02:30:26.993Z,19.72
2017-02-15T02:31:07.491Z,19.72
2017-02-15T02:31:47.983Z,19.63
2017-02-15T02:32:28.471Z,19.72
2017-02-15T02:33:08.967Z,19.61
2017-02-15T02:33:49.459Z,19.6
2017-02-15T02:34:29.972Z,19.63
2017-02-15T02:35:10.465Z,19.6
2017-02-15T02:35:51.080Z,19.61
2017-02-15T02:36:31.439Z,19.56
2017-02-15T02:37:11.937Z,19.61
2017-02-15T02:37:52.421Z,19.68
2017-02-15T02:38:32.916Z,19.61
2017-02-15T02:39:13.413Z,19.61
2017-02-15T02:39:53.903Z,19.6
2017-02-15T02:40:34.413Z,19.65
2017-02-15T02:41:14.894Z,19.64
2017-02-15T02:41:55.384Z,19.57
2017-02-15T02:42:35.880Z,19.68
2017-02-15T02:43:16.374Z,19.63
2017-02-15T02:43:56.860Z,19.63
2017-02-15T02:44:37.351Z,19.63
2017-02-15T02:45:17.857Z,19.64
2017-02-15T02:45:58.365Z,19.63
2017-02-15T02:46:38.829Z,19.64
2017-02-15T02:47:19.320Z,19.67
2017-02-15T02:47:59.824Z,19.61
2017-02-15T02:48:40.309Z,19.68
2017-02-15T02:49:20.803Z,19.67
2017-02-15T02:50:01.298Z,19.61
2017-02-15T02:50:41.789Z,19.67
2017-02-15T02:51:22.280Z,19.6
2017-02-15T02:52:02.770Z,19.64
2017-02-15T02:52:43.440Z,19.67
2017-02-15T02:53:23.946Z,19.57
2017-02-15T02:54:04.436Z,19.6
2017-02-15T02:54:44.925Z,19.63
2017-02-15T02:55:25.420Z,19.64
2017-02-15T02:56:05.921Z,19.6
2017-02-15T02:56:46.435Z,19.61
2017-02-15T02:57:26.937Z,19.63
2017-02-15T02:58:07.444Z,19.64
2017-02-15T02:58:47.941Z,19.49
2017-02-15T03:00:35.429Z,19.64
2017-02-15T03:01:15.910Z,19.55
2017-02-15T03:01:56.408Z,19.6
2017-02-15T03:02:36.910Z,19.57
2017-02-15T03:03:17.587Z,19.6
2017-02-15T03:03:58.082Z,19.63
2017-02-15T03:04:38.564Z,19.56
2017-02-15T03:05:19.056Z,19.57
2017-02-15T03:05:59.566Z,19.56
2017-02-15T03:06:40.056Z,19.63
2017-02-15T03:07:20.568Z,19.56
2017-02-15T03:08:01.066Z,19.56
2017-02-15T03:08:41.533Z,19.56
2017-02-15T03:09:22.032Z,19.5
2017-02-15T03:10:02.527Z,19.53
2017-02-15T03:10:43.005Z,19.56
2017-02-15T03:11:23.493Z,19.57
2017-02-15T03:12:03.979Z,19.55
2017-02-15T03:12:44.463Z,19.63
2017-02-15T03:13:24.941Z,19.61
2017-02-15T03:14:05.427Z,19.57
2017-02-15T03:14:45.909Z,19.65
2017-02-15T03:15:26.395Z,19.63
2017-02-15T03:16:06.905Z,19.63
2017-02-15T03:16:47.390Z,19.63
2017-02-15T03:17:27.890Z,19.56
2017-02-15T03:18:08.394Z,19.6
2017-02-15T03:18:48.897Z,19.57
2017-02-15T03:19:29.386Z,19.61
2017-02-15T03:20:09.870Z,19.57
2017-02-15T03:20:50.367Z,19.56
2017-02-15T03:21:30.865Z,19.49
2017-02-15T03:22:11.353Z,19.53
2017-02-15T03:22:51.846Z,19.46
2017-02-15T03:23:32.337Z,19.52
2017-02-15T03:24:12.832Z,19.52
2017-02-15T03:24:53.317Z,19.63
2017-02-15T03:25:33.812Z,19.57
2017-02-15T03:26:14.309Z,19.52
2017-02-15T03:26:54.792Z,19.52
2017-02-15T03:27:35.290Z,19.47
2017-02-15T03:28:15.783Z,19.53
2017-02-15T03:28:56.278Z,19.49
2017-02-15T03:29:36.764Z,19.53
2017-02-15T03:30:17.255Z,19.49
2017-02-15T03:30:57.756Z,19.53
2017-02-15T03:31:38.238Z,19.52
2017-02-15T03:32:18.733Z,19.52
2017-02-15T03:32:59.229Z,19.55
2017-02-15T03:33:39.883Z,19.52
2017-02-15T03:34:20.378Z,19.53
2017-02-15T03:35:00.878Z,19.56
2017-02-15T03:35:41.381Z,19.52
2017-02-15T03:36:21.879Z,19.57
2017-02-15T03:37:02.372Z,19.52
2017-02-15T03:37:42.871Z,19.47
2017-02-15T03:38:23.369Z,19.53
2017-02-15T03:39:03.855Z,19.56
2017-02-15T03:39:44.351Z,19.57
2017-02-15T03:40:24.851Z,19.56
2017-02-15T03:41:05.327Z,19.61
2017-02-15T03:41:45.803Z,19.57
2017-02-15T03:42:26.295Z,19.49
2017-02-15T03:43:06.780Z,19.55
2017-02-15T03:43:47.261Z,19.53
2017-02-15T03:44:27.746Z,19.6
2017-02-15T03:45:08.242Z,19.57
2017-02-15T03:45:48.746Z,19.5
2017-02-15T03:46:29.219Z,19.56
2017-02-15T03:47:09.702Z,19.53
2017-02-15T03:47:50.191Z,19.55
2017-02-15T03:48:30.673Z,19.56
2017-02-15T03:49:11.167Z,19.53
2017-02-15T03:49:51.665Z,19.47
2017-02-15T03:50:32.161Z,19.52
2017-02-15T03:51:12.664Z,19.49
2017-02-15T03:51:53.151Z,19.55
2017-02-15T03:52:33.637Z,19.55
2017-02-15T03:53:14.117Z,19.46
2017-02-15T03:53:54.635Z,19.49
2017-02-15T03:54:35.121Z,19.53
2017-02-15T03:55:15.614Z,19.55
2017-02-15T03:55:56.108Z,19.47
2017-02-15T03:56:36.611Z,19.52
2017-02-15T03:57:17.106Z,19.55
2017-02-15T03:57:57.609Z,19.53
2017-02-15T03:58:38.103Z,19.57
2017-02-15T03:59:18.591Z,19.55
2017-02-15T03:59:59.095Z,19.55
2017-02-15T04:00:39.579Z,19.47
2017-02-15T04:01:20.069Z,19.45
2017-02-15T04:02:00.554Z,19.49
2017-02-15T04:02:41.039Z,19.46
2017-02-15T04:03:21.524Z,19.5
2017-02-15T04:04:01.991Z,19.49
2017-02-15T04:04:42.487Z,19.49
2017-02-15T04:05:22.998Z,19.5
2017-02-15T04:06:03.489Z,19.49
2017-02-15T04:06:44.000Z,19.49
2017-02-15T04:07:24.497Z,19.52
2017-02-15T04:08:04.994Z,19.49
2017-02-15T04:08:45.480Z,19.49
2017-02-15T04:09:25.968Z,19.47
2017-02-15T04:10:06.463Z,19.55
2017-02-15T04:10:46.959Z,19.55
2017-02-15T04:11:27.441Z,19.46
2017-02-15T04:12:07.927Z,19.49
2017-02-15T04:12:48.412Z,19.47
2017-02-15T04:13:28.899Z,19.47
2017-02-15T04:14:09.392Z,19.5
2017-02-15T04:14:49.884Z,19.47
2017-02-15T04:15:30.369Z,19.46
2017-02-15T04:16:10.850Z,19.49
2017-02-15T04:16:51.335Z,19.5
2017-02-15T04:17:31.821Z,19.45
2017-02-15T04:18:12.306Z,19.5
2017-02-15T04:18:52.789Z,19.46
2017-02-15T04:19:33.284Z,19.38
2017-02-15T04:20:13.778Z,19.4
2017-02-15T04:20:54.261Z,19.38
2017-02-15T04:21:34.750Z,19.46
2017-02-15T04:22:15.236Z,19.55
2017-02-15T04:22:55.732Z,19.49
2017-02-15T04:23:36.224Z,19.5
2017-02-15T04:24:16.717Z,19.5
2017-02-15T04:24:57.204Z,19.49
2017-02-15T04:25:37.682Z,19.43
2017-02-15T04:26:18.176Z,19.47
2017-02-15T04:26:58.672Z,19.49
2017-02-15T04:27:39.154Z,19.45
2017-02-15T04:28:19.663Z,19.55
2017-02-15T04:29:00.155Z,19.5
2017-02-15T04:29:40.641Z,19.55
2017-02-15T04:30:21.133Z,19.46
2017-02-15T04:31:01.642Z,19.42
2017-02-15T04:31:42.127Z,19.46
2017-02-15T04:32:22.638Z,19.5
2017-02-15T04:33:03.138Z,19.46
2017-02-15T04:33:43.635Z,19.47
2017-02-15T04:34:24.124Z,19.52
2017-02-15T04:35:04.616Z,19.5
2017-02-15T04:35:45.111Z,19.45
2017-02-15T04:36:25.605Z,19.42
2017-02-15T04:37:06.112Z,19.52
2017-02-15T04:37:46.612Z,19.43
2017-02-15T04:38:27.107Z,19.38
2017-02-15T04:39:07.605Z,19.52
2017-02-15T04:39:48.106Z,19.38
2017-02-15T04:40:28.594Z,19.5
2017-02-15T04:41:09.087Z,19.45
2017-02-15T04:41:49.574Z,19.46
2017-02-15T04:42:30.073Z,19.47
2017-02-15T04:43:10.554Z,19.37
2017-02-15T04:43:51.051Z,19.53
2017-02-15T04:44:31.553Z,19.37
2017-02-15T04:45:12.039Z,19.5
2017-02-15T04:45:52.526Z,19.43
2017-02-15T04:46:33.023Z,19.52
2017-02-15T04:47:13.520Z,19.43
2017-02-15T04:47:54.007Z,19.49
2017-02-15T04:48:34.499Z,19.52
2017-02-15T04:49:14.996Z,19.46
2017-02-15T04:49:55.489Z,19.42
2017-02-15T04:50:35.989Z,19.4
2017-02-15T04:51:16.495Z,19.49
2017-02-15T04:51:56.991Z,19.43
2017-02-15T04:52:37.493Z,19.49
2017-02-15T04:53:17.980Z,19.42
2017-02-15T04:53:58.478Z,19.5
2017-02-15T04:54:38.964Z,19.37
2017-02-15T04:55:19.452Z,19.46
2017-02-15T04:55:59.941Z,19.45
2017-02-15T04:56:40.435Z,19.49
2017-02-15T04:57:20.929Z,19.49
2017-02-15T04:58:01.415Z,19.49
2017-02-15T04:58:41.941Z,19.46
2017-02-15T04:59:22.434Z,19.47
2017-02-15T05:00:03.093Z,19.45
2017-02-15T05:00:43.589Z,19.42
2017-02-15T05:01:24.085Z,19.52
2017-02-15T05:02:04.575Z,19.37
2017-02-15T05:02:45.063Z,19.46
2017-02-15T05:03:25.552Z,19.43
2017-02-15T05:04:06.055Z,19.42
2017-02-15T05:04:46.539Z,19.4
2017-02-15T05:05:27.026Z,19.46
2017-02-15T05:06:07.518Z,19.5
2017-02-15T05:06:48.006Z,19.47
2017-02-15T05:07:28.506Z,19.4
2017-02-15T05:08:09.000Z,19.37
2017-02-15T05:08:49.502Z,19.5
2017-02-15T05:09:29.991Z,19.45
2017-02-15T05:10:10.484Z,19.49
2017-02-15T05:10:50.977Z,19.42
2017-02-15T05:11:31.473Z,19.4
2017-02-15T05:12:11.977Z,19.42
2017-02-15T05:12:52.469Z,19.37
2017-02-15T05:13:32.978Z,19.46
2017-02-15T05:14:13.477Z,19.43
2017-02-15T05:14:53.968Z,19.42
2017-02-15T05:15:34.472Z,19.49
2017-02-15T05:16:14.971Z,19.5
2017-02-15T05:16:55.462Z,19.4
2017-02-15T05:17:35.947Z,19.4
2017-02-15T05:18:16.439Z,19.43
2017-02-15T05:18:56.940Z,19.46
2017-02-15T05:19:37.417Z,19.38
2017-02-15T05:20:17.912Z,19.38
2017-02-15T05:20:58.412Z,19.37
2017-02-15T05:21:38.914Z,19.42
2017-02-15T05:22:19.418Z,19.52
2017-02-15T05:22:59.911Z,19.43
2017-02-15T05:23:40.414Z,19.37
2017-02-15T05:24:20.903Z,19.42
2017-02-15T05:25:01.387Z,19.47
2017-02-15T05:25:41.865Z,19.4
2017-02-15T05:26:22.363Z,19.4
2017-02-15T05:27:02.862Z,19.46
2017-02-15T05:27:43.352Z,19.46
2017-02-15T05:28:23.859Z,19.4
2017-02-15T05:29:04.351Z,19.42
2017-02-15T05:29:44.848Z,19.45
2017-02-15T05:30:25.461Z,19.43
2017-02-15T05:31:05.956Z,19.43
2017-02-15T05:31:46.451Z,19.49
2017-02-15T05:32:26.954Z,19.43
2017-02-15T05:33:07.444Z,19.42
2017-02-15T05:33:47.957Z,19.4
2017-02-15T05:34:28.447Z,19.4
2017-02-15T05:35:08.953Z,19.38
2017-02-15T05:35:49.428Z,19.37
2017-02-15T05:36:29.927Z,19.42
2017-02-15T05:37:10.406Z,19.4
2017-02-15T05:37:50.897Z,19.43
2017-02-15T05:38:31.407Z,19.42
2017-02-15T05:39:11.901Z,19.42
2017-02-15T05:39:52.396Z,19.43
2017-02-15T05:40:32.893Z,19.46
2017-02-15T05:41:13.395Z,19.38
2017-02-15T05:41:53.890Z,19.38
2017-02-15T05:42:34.389Z,19.42
2017-02-15T05:43:14.898Z,19.43
2017-02-15T05:43:55.399Z,19.42
2017-02-15T05:44:35.880Z,19.4
2017-02-15T05:45:16.368Z,19.4
2017-02-15T05:45:56.859Z,19.37
2017-02-15T05:46:37.370Z,19.4
2017-02-15T05:47:17.849Z,19.38
2017-02-15T05:47:58.344Z,19.43
2017-02-15T05:48:38.841Z,19.46
2017-02-15T05:49:19.391Z,19.4
2017-02-15T05:49:59.879Z,19.43
2017-02-15T05:50:40.392Z,19.38
2017-02-15T05:51:20.882Z,19.43
2017-02-15T05:52:01.370Z,19.42
2017-02-15T05:52:41.861Z,19.45
2017-02-15T05:53:22.357Z,19.46
2017-02-15T05:54:02.859Z,19.42
2017-02-15T05:54:43.357Z,19.4
2017-02-15T05:55:23.847Z,19.38
2017-02-15T05:56:04.342Z,19.42
2017-02-15T05:56:44.832Z,19.38
2017-02-15T05:57:25.318Z,19.37
2017-02-15T05:58:05.812Z,19.46
2017-02-15T05:58:46.305Z,19.45
2017-02-15T05:59:26.801Z,19.4
2017-02-15T06:00:07.292Z,19.42
2017-02-15T06:00:47.799Z,19.4
2017-02-15T06:01:28.288Z,19.37
2017-02-15T06:02:08.784Z,19.4
2017-02-15T06:02:49.280Z,19.42
2017-02-15T06:03:29.774Z,19.45
2017-02-15T06:04:10.309Z,19.42
2017-02-15T06:04:50.793Z,19.37
2017-02-15T06:05:31.281Z,19.34
2017-02-15T06:06:11.779Z,19.35
2017-02-15T06:06:52.274Z,19.37
2017-02-15T06:07:32.771Z,19.38
2017-02-15T06:08:13.272Z,19.38
2017-02-15T06:08:53.764Z,19.37
2017-02-15T06:09:34.272Z,19.35
2017-02-15T06:10:14.763Z,19.34
2017-02-15T06:10:55.267Z,19.27
2017-02-15T06:11:35.793Z,19.35
2017-02-15T06:12:16.371Z,19.37
2017-02-15T06:12:56.875Z,19.34
2017-02-15T06:13:37.369Z,19.32
2017-02-15T06:14:17.855Z,19.42
2017-02-15T06:14:58.350Z,19.34
2017-02-15T06:15:38.841Z,19.38
2017-02-15T06:16:19.340Z,19.37
2017-02-15T06:16:59.825Z,19.42
2017-02-15T06:17:40.337Z,19.47
2017-02-15T06:18:20.833Z,19.42
2017-02-15T06:19:01.336Z,19.43
2017-02-15T06:19:41.814Z,19.4
2017-02-15T06:20:22.336Z,19.42
2017-02-15T06:21:02.809Z,19.35
2017-02-15T06:21:43.310Z,19.43
2017-02-15T06:22:23.807Z,19.4
2017-02-15T06:23:04.308Z,19.38
2017-02-15T06:23:44.810Z,19.45
2017-02-15T06:24:25.301Z,19.31
2017-02-15T06:25:05.813Z,19.46
2017-02-15T06:25:46.290Z,19.34
2017-02-15T06:26:26.784Z,19.47
2017-02-15T06:27:07.264Z,19.4
2017-02-15T06:27:47.772Z,19.34
2017-02-15T06:28:28.256Z,19.4
2017-02-15T06:29:08.744Z,19.43
2017-02-15T06:29:49.239Z,19.45
2017-02-15T06:30:29.743Z,19.4
2017-02-15T06:31:10.237Z,19.38
2017-02-15T06:31:50.719Z,19.43
2017-02-15T06:32:31.225Z,19.4
2017-02-15T06:33:11.706Z,19.42
2017-02-15T06:33:52.203Z,19.38
2017-02-15T06:34:32.682Z,19.37
2017-02-15T06:35:13.189Z,19.35
2017-02-15T06:35:53.680Z,19.4
2017-02-15T06:36:34.184Z,19.42
2017-02-15T06:37:14.670Z,19.42
2017-02-15T06:37:55.164Z,19.46
2017-02-15T06:38:35.668Z,19.32
2017-02-15T06:39:16.149Z,19.37
2017-02-15T06:39:56.646Z,19.31
2017-02-15T06:40:37.141Z,19.4
2017-02-15T06:41:17.641Z,19.47
2017-02-15T06:41:58.143Z,19.47
2017-02-15T06:42:38.622Z,19.43
2017-02-15T06:43:19.112Z,19.46
2017-02-15T06:43:59.593Z,19.38
2017-02-15T06:44:40.086Z,19.37
2017-02-15T06:45:20.576Z,19.46
2017-02-15T06:46:01.047Z,19.37
2017-02-15T06:46:41.560Z,19.45
2017-02-15T06:47:22.049Z,19.45
2017-02-15T06:48:02.562Z,19.42
2017-02-15T06:48:43.076Z,19.4
2017-02-15T06:49:23.534Z,19.43
2017-02-15T06:50:04.032Z,19.43
2017-02-15T06:50:44.515Z,19.45
2017-02-15T06:51:25.004Z,19.38
2017-02-15T06:52:05.497Z,19.4
2017-02-15T06:52:45.994Z,19.46
2017-02-15T06:53:26.481Z,19.4
2017-02-15T06:54:06.971Z,19.35
2017-02-15T06:54:47.481Z,19.43
2017-02-15T06:55:27.965Z,19.5
2017-02-15T06:56:08.470Z,19.45
2017-02-15T06:56:48.975Z,19.5
2017-02-15T06:57:29.475Z,19.46
2017-02-15T06:58:09.957Z,19.5
2017-02-15T06:58:50.446Z,19.49
2017-02-15T06:59:30.928Z,19.49
2017-02-15T07:00:11.416Z,19.47
2017-02-15T07:00:51.921Z,19.52
2017-02-15T07:01:32.414Z,19.5
2017-02-15T07:02:12.922Z,19.5
2017-02-15T07:02:53.409Z,19.5
2017-02-15T07:03:33.918Z,19.56
2017-02-15T07:04:14.407Z,19.5
2017-02-15T07:04:54.917Z,19.52
2017-02-15T07:05:35.402Z,19.52
2017-02-15T07:06:15.887Z,19.47
2017-02-15T07:06:56.386Z,19.52
2017-02-15T07:07:36.881Z,19.6
2017-02-15T07:08:17.363Z,19.56
2017-02-15T07:08:57.864Z,19.56
2017-02-15T07:09:38.358Z,19.61
2017-02-15T07:10:18.850Z,19.7
2017-02-15T07:10:59.460Z,19.68
2017-02-15T07:11:39.946Z,19.6
2017-02-15T07:12:20.453Z,19.61
2017-02-15T07:13:01.681Z,19.68
2017-02-15T07:13:41.529Z,19.67
2017-02-15T07:14:22.018Z,19.7
2017-02-15T07:15:02.532Z,19.65
2017-02-15T07:15:43.011Z,19.63
2017-02-15T07:16:23.492Z,19.64
2017-02-15T07:17:04.004Z,19.67
2017-02-15T07:17:44.493Z,19.67
2017-02-15T07:18:24.976Z,19.78
2017-02-15T07:19:05.494Z,19.67
2017-02-15T07:19:45.980Z,19.7
2017-02-15T07:20:26.530Z,19.86
2017-02-15T07:21:07.004Z,19.71
2017-02-15T07:21:47.488Z,19.92
2017-02-15T07:22:27.982Z,19.93
2017-02-15T07:23:08.476Z,20.01
2017-02-15T07:23:48.966Z,19.93
2017-02-15T07:24:29.453Z,19.95
2017-02-15T07:25:09.950Z,19.9
2017-02-15T07:25:50.446Z,20.04
2017-02-15T07:26:30.932Z,19.93
2017-02-15T07:27:11.497Z,19.95
2017-02-15T07:27:51.984Z,20
2017-02-15T07:28:32.469Z,20.04
2017-02-15T07:29:12.967Z,20.11
2017-02-15T07:29:53.462Z,20.12
2017-02-15T07:30:33.965Z,20.15
2017-02-15T07:31:14.468Z,20.11
2017-02-15T07:31:54.942Z,20.11
2017-02-15T07:32:35.428Z,20.11
2017-02-15T07:33:15.939Z,20.11
2017-02-15T07:33:56.437Z,20.16
2017-02-15T07:34:36.924Z,20.1
2017-02-15T07:35:17.413Z,20.16
2017-02-15T07:35:57.895Z,20.22
2017-02-15T07:36:38.386Z,20.25
2017-02-15T07:37:18.884Z,20.29
2017-02-15T07:37:59.367Z,20.34
2017-02-15T07:38:39.857Z,20.32
2017-02-15T07:39:20.345Z,20.25
2017-02-15T07:40:00.916Z,20.4
2017-02-15T07:40:41.408Z,20.4
2017-02-15T07:41:21.898Z,20.41
2017-02-15T07:42:02.408Z,20.42
2017-02-15T07:42:42.883Z,20.41
2017-02-15T07:43:23.472Z,20.44
2017-02-15T07:44:03.972Z,20.49
2017-02-15T07:44:44.476Z,20.42
2017-02-15T07:45:24.975Z,20.51
2017-02-15T07:46:05.472Z,20.44
2017-02-15T07:46:45.965Z,20.56
2017-02-15T07:47:26.475Z,20.57
2017-02-15T07:48:06.979Z,20.64
2017-02-15T07:48:47.477Z,20.6
2017-02-15T07:49:27.970Z,20.6
2017-02-15T07:50:08.472Z,20.66
2017-02-15T07:50:48.973Z,20.68
2017-02-15T07:51:29.460Z,20.67
2017-02-15T07:52:09.989Z,20.74
2017-02-15T07:52:50.475Z,20.76
2017-02-15T07:53:30.976Z,20.83
2017-02-15T07:54:11.456Z,20.88
2017-02-15T07:54:51.949Z,20.93
2017-02-15T07:55:32.442Z,20.93
2017-02-15T07:56:12.939Z,20.88
2017-02-15T07:56:53.418Z,20.91
2017-02-15T07:57:33.907Z,20.97
2017-02-15T07:58:14.392Z,20.94
2017-02-15T07:58:54.889Z,21.04
2017-02-15T07:59:35.387Z,21.08
2017-02-15T08:00:15.871Z,21.09
2017-02-15T08:00:56.382Z,21.12
2017-02-15T08:01:36.862Z,21.12
2017-02-15T08:02:17.354Z,21.12
2017-02-15T08:02:57.861Z,21.11
2017-02-15T08:03:38.350Z,21.11
2017-02-15T08:04:18.853Z,21.13
2017-02-15T08:04:59.353Z,21.23
2017-02-15T08:05:39.861Z,21.27
2017-02-15T08:06:20.360Z,21.25
2017-02-15T08:07:00.857Z,21.25
2017-02-15T08:07:41.359Z,21.27
2017-02-15T08:08:21.858Z,21.34
2017-02-15T08:09:02.355Z,21.34
2017-02-15T08:09:44.250Z,21.37
2017-02-15T08:10:24.191Z,21.48
2017-02-15T08:11:06.775Z,21.4
2017-02-15T08:11:45.961Z,21.49
2017-02-15T08:12:26.467Z,21.45
2017-02-15T08:13:06.945Z,21.51
2017-02-15T08:13:47.440Z,21.58
2017-02-15T08:14:27.935Z,21.55
2017-02-15T08:15:08.423Z,21.56
2017-02-15T08:15:48.911Z,21.66
2017-02-15T08:16:29.404Z,21.64
2017-02-15T08:17:09.909Z,21.7
2017-02-15T08:17:50.404Z,21.67
2017-02-15T08:18:30.903Z,21.67
2017-02-15T08:19:11.402Z,21.76
2017-02-15T08:19:51.899Z,21.76
2017-02-15T08:20:32.372Z,21.82
2017-02-15T08:21:13.012Z,21.89
2017-02-15T08:21:53.501Z,21.92
2017-02-15T08:22:34.004Z,21.94
2017-02-15T08:23:14.595Z,21.92
2017-02-15T08:23:55.156Z,22
2017-02-15T08:24:35.681Z,21.9
2017-02-15T08:25:16.172Z,21.99
2017-02-15T08:25:56.660Z,22.04
2017-02-15T08:26:37.154Z,22.11
2017-02-15T08:27:17.651Z,22.09
2017-02-15T08:27:58.153Z,22.16
2017-02-15T08:28:38.651Z,22.09
2017-02-15T08:29:19.219Z,22.11
2017-02-15T08:29:59.733Z,22.2
2017-02-15T08:30:40.228Z,22.14
2017-02-15T08:31:20.712Z,22.2
2017-02-15T08:32:01.203Z,22.27
2017-02-15T08:32:41.712Z,22.26
2017-02-15T08:33:22.225Z,22.34
2017-02-15T08:34:02.728Z,22.29
2017-02-15T08:34:43.299Z,22.31
2017-02-15T08:35:24.699Z,22.33
2017-02-15T08:36:04.377Z,22.41
2017-02-15T08:36:44.874Z,22.44
2017-02-15T08:37:25.373Z,22.46
2017-02-15T08:38:05.875Z,22.51
2017-02-15T08:38:46.351Z,22.54
2017-02-15T08:39:26.848Z,22.54
2017-02-15T08:40:07.333Z,22.6
2017-02-15T08:40:47.842Z,22.61
2017-02-15T08:41:28.322Z,22.6
2017-02-15T08:42:08.823Z,22.66
2017-02-15T08:42:49.322Z,22.7
2017-02-15T08:43:29.813Z,22.69
2017-02-15T08:44:10.320Z,22.69
2017-02-15T08:44:50.845Z,22.75
2017-02-15T08:45:31.334Z,22.75